createdAt,value
2022-12-05T00:00:11.699Z,1.62
2022-12-05T00:01:11.616Z,1.75
2022-12-05T00:02:11.692Z,1.62
2022-12-05T00:03:11.599Z,1.69
2022-12-05T00:04:11.683Z,1.71
2022-12-05T00:05:11.635Z,1.62
2022-12-05T00:06:11.586Z,1.62
2022-12-05T00:07:11.582Z,1.64
2022-12-05T00:08:11.643Z,1.62
2022-12-05T00:09:11.555Z,1.55
2022-12-05T00:10:11.562Z,1.58
2022-12-05T00:11:11.530Z,1.68
2022-12-05T00:12:12.345Z,1.65
2022-12-05T00:13:11.525Z,1.60
2022-12-05T00:14:11.512Z,1.54
2022-12-05T00:15:11.506Z,1.71
2022-12-05T00:16:11.515Z,1.72
2022-12-05T00:17:11.564Z,1.69
2022-12-05T00:18:11.479Z,1.50
2022-12-05T00:19:11.467Z,1.68
2022-12-05T00:20:11.457Z,1.64
2022-12-05T00:21:11.468Z,1.62
2022-12-05T00:22:11.473Z,1.57
2022-12-05T00:23:11.440Z,1.64
2022-12-05T00:24:11.455Z,1.62
2022-12-05T00:25:11.420Z,1.64
2022-12-05T00:26:11.406Z,1.61
2022-12-05T00:27:11.423Z,1.65
2022-12-05T00:28:11.404Z,1.65
2022-12-05T00:29:11.381Z,1.65
2022-12-05T00:30:11.371Z,1.65
2022-12-05T00:31:11.373Z,1.64
2022-12-05T00:32:11.415Z,1.71
2022-12-05T00:33:11.343Z,1.57
2022-12-05T00:34:11.341Z,1.64
2022-12-05T00:35:11.334Z,1.73
2022-12-05T00:36:11.328Z,1.71
2022-12-05T00:37:11.348Z,1.68
2022-12-05T00:38:11.301Z,1.79
2022-12-05T00:39:11.279Z,1.60
2022-12-05T00:40:11.285Z,1.69
2022-12-05T00:41:11.274Z,1.58
2022-12-05T00:42:11.344Z,1.57
2022-12-05T00:43:11.257Z,1.73
2022-12-05T00:44:11.279Z,1.68
2022-12-05T00:45:11.272Z,1.75
2022-12-05T00:46:11.283Z,1.73
2022-12-05T00:47:12.244Z,1.72
2022-12-05T00:48:11.228Z,1.78
2022-12-05T00:49:11.204Z,1.68
2022-12-05T00:50:11.201Z,1.62
2022-12-05T00:51:11.202Z,1.71
2022-12-05T00:52:11.173Z,1.72
2022-12-05T00:53:11.218Z,1.73
2022-12-05T00:54:11.173Z,1.78
2022-12-05T00:55:11.156Z,1.85
2022-12-05T00:56:11.228Z,1.69
2022-12-05T00:57:11.132Z,1.75
2022-12-05T00:58:11.144Z,1.73
2022-12-05T00:59:11.139Z,1.65
2022-12-05T01:00:11.109Z,1.68
2022-12-05T01:01:11.272Z,1.78
2022-12-05T01:02:11.153Z,1.64
2022-12-05T01:03:11.183Z,1.69
2022-12-05T01:04:11.075Z,1.64
2022-12-05T01:05:11.071Z,1.65
2022-12-05T01:06:11.067Z,1.71
2022-12-05T01:07:11.059Z,1.78
2022-12-05T01:08:11.192Z,1.78
2022-12-05T01:09:12.026Z,1.69
2022-12-05T01:10:11.015Z,1.75
2022-12-05T01:11:11.015Z,1.65
2022-12-05T01:12:11.012Z,1.87
2022-12-05T01:13:11.003Z,1.68
2022-12-05T01:14:11.016Z,1.65
2022-12-05T01:15:11.959Z,1.71
2022-12-05T01:16:11.052Z,1.76
2022-12-05T01:17:11.063Z,1.76
2022-12-05T01:18:10.971Z,1.72
2022-12-05T01:19:10.944Z,1.83
2022-12-05T01:20:10.937Z,1.72
2022-12-05T01:21:10.926Z,1.71
2022-12-05T01:22:10.911Z,1.68
2022-12-05T01:23:10.925Z,1.78
2022-12-05T01:24:10.922Z,1.71
2022-12-05T01:25:10.906Z,1.72
2022-12-05T01:26:10.883Z,1.78
2022-12-05T01:27:10.885Z,1.65
2022-12-05T01:28:10.884Z,1.64
2022-12-05T01:29:10.946Z,1.57
2022-12-05T01:30:10.845Z,1.69
2022-12-05T01:31:10.833Z,1.76
2022-12-05T01:32:10.932Z,1.75
2022-12-05T01:33:10.851Z,1.80
2022-12-05T01:34:10.809Z,1.87
2022-12-05T01:35:10.799Z,1.71
2022-12-05T01:36:10.795Z,1.75
2022-12-05T01:37:10.793Z,1.76
2022-12-05T01:38:10.786Z,1.65
2022-12-05T01:39:10.767Z,1.76
2022-12-05T01:40:10.749Z,1.75
2022-12-05T01:41:10.767Z,1.82
2022-12-05T01:42:10.724Z,1.72
2022-12-05T01:43:10.761Z,1.78
2022-12-05T01:44:10.722Z,1.78
2022-12-05T01:45:10.727Z,1.83
2022-12-05T01:46:10.726Z,1.75
2022-12-05T01:47:10.700Z,1.69
2022-12-05T01:48:10.710Z,1.78
2022-12-05T01:49:10.680Z,1.73
2022-12-05T01:50:10.666Z,1.83
2022-12-05T01:51:10.649Z,1.71
2022-12-05T01:52:11.765Z,1.82
2022-12-05T01:53:10.663Z,1.75
2022-12-05T01:54:11.628Z,1.80
2022-12-05T01:55:10.634Z,1.69
2022-12-05T01:56:10.620Z,1.73
2022-12-05T01:57:10.633Z,1.79
2022-12-05T01:58:10.633Z,1.75
2022-12-05T01:59:10.649Z,1.72
2022-12-05T02:00:10.596Z,1.82
2022-12-05T02:01:10.671Z,1.73
2022-12-05T02:02:10.631Z,1.82
2022-12-05T02:03:10.604Z,1.73
2022-12-05T02:04:10.552Z,1.75
2022-12-05T02:05:10.544Z,1.78
2022-12-05T02:06:10.540Z,1.83
2022-12-05T02:07:10.530Z,1.76
2022-12-05T02:08:10.606Z,1.83
2022-12-05T02:09:10.550Z,1.79
2022-12-05T02:10:10.502Z,1.82
2022-12-05T02:11:10.501Z,1.82
2022-12-05T02:12:10.508Z,1.76
2022-12-05T02:13:10.492Z,1.76
2022-12-05T02:14:10.484Z,1.73
2022-12-05T02:15:10.457Z,1.79
2022-12-05T02:16:10.538Z,1.78
2022-12-05T02:17:10.446Z,1.75
2022-12-05T02:18:10.463Z,1.71
2022-12-05T02:19:10.422Z,1.75
2022-12-05T02:20:10.413Z,1.69
2022-12-05T02:21:10.435Z,1.69
2022-12-05T02:22:10.435Z,1.69
2022-12-05T02:23:10.428Z,1.73
2022-12-05T02:24:10.428Z,1.61
2022-12-05T02:25:10.364Z,1.78
2022-12-05T02:26:10.391Z,1.82
2022-12-05T02:27:10.357Z,1.64
2022-12-05T02:28:10.380Z,1.60
2022-12-05T02:31:01.141Z,1.71
2022-12-05T02:31:56.027Z,1.64
2022-12-05T02:32:56.001Z,1.65
2022-12-05T02:33:55.954Z,1.62
2022-12-05T02:34:55.946Z,1.72
2022-12-05T02:35:55.938Z,1.64
2022-12-05T02:36:55.961Z,1.58
2022-12-05T02:37:55.938Z,1.72
2022-12-05T02:38:55.920Z,1.61
2022-12-05T02:39:56.229Z,1.57
2022-12-05T02:40:55.895Z,1.75
2022-12-05T02:41:57.005Z,1.69
2022-12-05T02:42:57.018Z,1.71
2022-12-05T02:43:56.987Z,1.61
2022-12-05T02:44:57.004Z,1.54
2022-12-05T02:45:57.033Z,1.52
2022-12-05T02:46:56.999Z,1.50
2022-12-05T02:47:56.981Z,1.52
2022-12-05T02:48:56.961Z,1.57
2022-12-05T02:49:57.162Z,1.43
2022-12-05T02:50:56.947Z,1.46
2022-12-05T02:51:56.947Z,1.46
2022-12-05T02:52:56.949Z,1.47
2022-12-05T02:53:56.994Z,1.44
2022-12-05T02:54:56.919Z,1.44
2022-12-05T02:55:56.912Z,1.33
2022-12-05T02:56:56.929Z,1.42
2022-12-05T02:57:56.919Z,1.29
2022-12-05T02:58:56.882Z,1.42
2022-12-05T02:59:57.220Z,1.51
2022-12-05T03:00:56.889Z,1.40
2022-12-05T03:01:56.853Z,1.39
2022-12-05T03:02:56.889Z,1.36
2022-12-05T03:03:56.879Z,1.26
2022-12-05T03:04:56.846Z,1.36
2022-12-05T03:05:56.823Z,1.36
2022-12-05T03:06:56.829Z,1.40
2022-12-05T03:07:56.862Z,1.34
2022-12-05T03:08:56.794Z,1.40
2022-12-05T03:09:57.123Z,1.36
2022-12-05T03:10:56.790Z,1.34
2022-12-05T03:11:56.768Z,1.34
2022-12-05T03:12:56.783Z,1.40
2022-12-05T03:13:56.754Z,1.37
2022-12-05T03:14:56.754Z,1.37
2022-12-05T03:15:56.744Z,1.33
2022-12-05T03:16:56.809Z,1.34
2022-12-05T03:17:56.762Z,1.24
2022-12-05T03:18:56.715Z,1.29
2022-12-05T03:19:57.015Z,1.33
2022-12-05T03:20:56.708Z,1.32
2022-12-05T03:21:56.695Z,1.25
2022-12-05T03:22:56.706Z,1.21
2022-12-05T03:23:56.742Z,1.29
2022-12-05T03:24:56.663Z,1.29
2022-12-05T03:25:56.690Z,1.16
2022-12-05T03:26:56.661Z,1.33
2022-12-05T03:27:56.665Z,1.26
2022-12-05T03:28:56.656Z,1.33
2022-12-05T03:29:56.944Z,1.36
2022-12-05T03:30:56.708Z,1.18
2022-12-05T03:31:56.608Z,1.37
2022-12-05T03:32:56.618Z,1.34
2022-12-05T03:33:56.620Z,1.22
2022-12-05T03:34:56.601Z,1.33
2022-12-05T03:35:56.577Z,1.28
2022-12-05T03:36:56.570Z,1.22
2022-12-05T03:37:56.590Z,1.29
2022-12-05T03:38:56.552Z,1.28
2022-12-05T03:39:56.842Z,1.29
2022-12-05T03:40:56.532Z,1.26
2022-12-05T03:41:56.529Z,1.22
2022-12-05T03:42:56.552Z,1.22
2022-12-05T03:43:56.510Z,1.22
2022-12-05T03:44:56.498Z,1.16
2022-12-05T03:45:56.540Z,1.18
2022-12-05T03:46:56.490Z,1.25
2022-12-05T03:47:56.473Z,1.16
2022-12-05T03:48:56.474Z,1.07
2022-12-05T03:49:56.771Z,1.19
2022-12-05T03:50:56.441Z,1.18
2022-12-05T03:51:56.447Z,1.25
2022-12-05T03:53:19.057Z,1.28
2022-12-05T03:53:58.441Z,1.25
2022-12-05T03:54:56.415Z,1.16
2022-12-05T03:55:56.411Z,1.14
2022-12-05T03:56:56.391Z,1.15
2022-12-05T03:57:56.389Z,1.14
2022-12-05T03:58:56.402Z,1.14
2022-12-05T03:59:56.763Z,1.12
2022-12-05T04:00:56.364Z,1.15
2022-12-05T04:01:56.432Z,1.12
2022-12-05T04:02:56.375Z,1.19
2022-12-05T04:03:56.429Z,1.10
2022-12-05T04:04:56.329Z,1.14
2022-12-05T04:05:56.307Z,1.16
2022-12-05T04:06:57.330Z,1.19
2022-12-05T04:07:56.337Z,1.10
2022-12-05T04:08:56.322Z,1.10
2022-12-05T04:09:56.634Z,1.18
2022-12-05T04:10:56.305Z,1.19
2022-12-05T04:11:56.275Z,1.15
2022-12-05T04:12:56.264Z,1.12
2022-12-05T04:13:56.282Z,1.14
2022-12-05T04:14:56.241Z,1.08
2022-12-05T04:15:56.271Z,1.16
2022-12-05T04:16:56.221Z,1.10
2022-12-05T04:17:57.215Z,1.08
2022-12-05T04:18:56.229Z,1.12
2022-12-05T04:19:56.496Z,1.06
2022-12-05T04:20:56.188Z,1.25
2022-12-05T04:21:56.190Z,1.22
2022-12-05T04:22:56.186Z,1.21
2022-12-05T04:23:56.182Z,1.18
2022-12-05T04:24:56.155Z,1.26
2022-12-05T04:25:56.145Z,1.19
2022-12-05T04:26:56.141Z,1.08
2022-12-05T04:27:56.126Z,1.06
2022-12-05T04:28:56.174Z,1.08
2022-12-05T04:29:56.373Z,1.19
2022-12-05T04:30:56.190Z,1.22
2022-12-05T04:31:56.106Z,1.10
2022-12-05T04:32:56.093Z,1.06
2022-12-05T04:33:56.098Z,1.12
2022-12-05T04:34:56.067Z,1.18
2022-12-05T04:35:56.055Z,1.16
2022-12-05T04:36:56.076Z,1.14
2022-12-05T04:37:56.040Z,1.22
2022-12-05T04:38:56.057Z,1.19
2022-12-05T04:39:56.343Z,1.22
2022-12-05T04:40:56.018Z,1.33
2022-12-05T04:41:56.007Z,1.26
2022-12-05T04:42:56.010Z,1.24
2022-12-05T04:43:56.025Z,1.19
2022-12-05T04:44:55.980Z,1.24
2022-12-05T04:45:56.060Z,1.10
2022-12-05T04:46:56.052Z,1.21
2022-12-05T04:47:55.955Z,1.07
2022-12-05T04:48:55.963Z,1.15
2022-12-05T04:49:56.140Z,1.25
2022-12-05T04:50:55.938Z,1.19
2022-12-05T04:51:55.922Z,1.22
2022-12-05T04:52:55.914Z,1.37
2022-12-05T04:53:55.926Z,1.24
2022-12-05T04:54:55.895Z,1.03
2022-12-05T04:55:55.893Z,1.14
2022-12-05T04:57:00.973Z,1.19
2022-12-05T04:57:55.875Z,1.18
2022-12-05T04:58:55.887Z,1.06
2022-12-05T04:59:56.196Z,1.06
2022-12-05T05:00:55.859Z,1.07
2022-12-05T05:01:55.958Z,0.96
2022-12-05T05:02:55.865Z,1.03
2022-12-05T05:03:55.852Z,0.98
2022-12-05T05:04:55.808Z,0.97
2022-12-05T05:05:55.848Z,0.98
2022-12-05T05:06:55.805Z,0.94
2022-12-05T05:07:55.865Z,0.92
2022-12-05T05:08:55.851Z,1.04
2022-12-05T05:09:56.027Z,1.03
2022-12-05T05:10:55.765Z,1.00
2022-12-05T05:11:55.757Z,1.04
2022-12-05T05:12:55.752Z,1.00
2022-12-05T05:13:55.797Z,0.97
2022-12-05T05:14:55.736Z,1.03
2022-12-05T05:15:55.798Z,1.06
2022-12-05T05:16:55.707Z,1.01
2022-12-05T05:17:55.704Z,0.98
2022-12-05T05:18:55.761Z,1.01
2022-12-05T05:19:56.056Z,1.01
2022-12-05T05:20:55.675Z,1.04
2022-12-05T05:21:55.688Z,1.03
2022-12-05T05:22:55.662Z,0.90
2022-12-05T05:23:55.675Z,0.98
2022-12-05T05:24:55.676Z,1.04
2022-12-05T05:25:55.644Z,0.98
2022-12-05T05:26:57.436Z,0.98
2022-12-05T05:27:56.634Z,0.92
2022-12-05T05:28:55.637Z,0.98
2022-12-05T05:29:55.806Z,0.90
2022-12-05T05:30:55.679Z,0.96
2022-12-05T05:31:55.598Z,0.89
2022-12-05T05:32:55.581Z,0.98
2022-12-05T05:33:55.582Z,0.94
2022-12-05T05:34:55.588Z,0.90
2022-12-05T05:35:55.557Z,0.90
2022-12-05T05:36:55.576Z,1.01
2022-12-05T05:37:55.541Z,1.03
2022-12-05T05:39:29.253Z,1.04
2022-12-05T05:39:55.837Z,1.04
2022-12-05T05:40:55.518Z,1.00
2022-12-05T05:41:55.501Z,1.01
2022-12-05T05:42:55.498Z,1.14
2022-12-05T05:43:55.499Z,1.06
2022-12-05T05:44:55.479Z,1.04
2022-12-05T05:45:55.471Z,1.00
2022-12-05T05:46:55.567Z,0.97
2022-12-05T05:47:55.443Z,1.04
2022-12-05T05:48:55.463Z,1.07
2022-12-05T05:49:55.759Z,1.00
2022-12-05T05:50:55.429Z,1.01
2022-12-05T05:51:55.410Z,1.07
2022-12-05T05:52:55.406Z,1.04
2022-12-05T05:53:55.411Z,1.08
2022-12-05T05:54:55.395Z,1.14
2022-12-05T05:55:55.378Z,1.15
2022-12-05T05:56:55.377Z,1.24
2022-12-05T05:57:55.362Z,1.24
2022-12-05T05:58:55.426Z,1.16
2022-12-05T05:59:55.576Z,1.14
2022-12-05T06:00:55.331Z,1.18
2022-12-05T06:01:55.323Z,1.22
2022-12-05T06:02:55.393Z,1.07
2022-12-05T06:03:55.496Z,1.19
2022-12-05T06:04:55.298Z,1.06
2022-12-05T06:05:55.287Z,1.03
2022-12-05T06:06:55.291Z,1.06
2022-12-05T06:07:55.312Z,1.03
2022-12-05T06:08:55.313Z,1.04
2022-12-05T06:09:55.501Z,1.07
2022-12-05T06:10:55.254Z,1.15
2022-12-05T06:11:55.236Z,1.07
2022-12-05T06:12:55.233Z,1.08
2022-12-05T06:13:55.250Z,1.08
2022-12-05T06:14:55.214Z,1.10
2022-12-05T06:15:55.294Z,1.08
2022-12-05T06:16:55.256Z,1.24
2022-12-05T06:17:55.192Z,1.26
2022-12-05T06:18:55.211Z,1.33
2022-12-05T06:19:55.494Z,1.25
2022-12-05T06:20:55.162Z,1.22
2022-12-05T06:21:55.155Z,1.21
2022-12-05T06:22:55.147Z,1.19
2022-12-05T06:23:55.151Z,1.22
2022-12-05T06:24:55.129Z,1.22
2022-12-05T06:25:55.122Z,1.25
2022-12-05T06:26:55.109Z,1.32
2022-12-05T06:27:55.097Z,1.33
2022-12-05T06:28:55.114Z,1.16
2022-12-05T06:29:55.223Z,1.25
2022-12-05T06:30:55.078Z,1.25
2022-12-05T06:31:55.187Z,1.40
2022-12-05T06:32:55.066Z,1.39
2022-12-05T06:33:55.048Z,1.34
2022-12-05T06:34:55.053Z,1.50
2022-12-05T06:35:55.036Z,1.44
2022-12-05T06:36:55.020Z,1.47
2022-12-05T06:37:55.018Z,1.47
2022-12-05T06:38:55.009Z,1.52
2022-12-05T06:39:55.121Z,1.57
2022-12-05T06:40:54.995Z,1.54
2022-12-05T06:41:54.980Z,1.57
2022-12-05T06:42:54.969Z,1.55
2022-12-05T06:44:00.138Z,1.55
2022-12-05T06:44:56.983Z,1.64
2022-12-05T06:45:55.015Z,1.64
2022-12-05T06:46:54.933Z,1.65
2022-12-05T06:47:54.926Z,1.60
2022-12-05T06:48:54.926Z,1.64
2022-12-05T06:49:55.175Z,1.60
2022-12-05T06:50:54.914Z,1.50
2022-12-05T06:51:54.892Z,1.42
2022-12-05T06:52:54.888Z,1.50
2022-12-05T06:53:54.881Z,1.40
2022-12-05T06:54:54.886Z,1.37
2022-12-05T06:55:54.860Z,1.43
2022-12-05T06:56:54.847Z,1.46
2022-12-05T06:57:54.845Z,1.40
2022-12-05T06:58:54.831Z,1.44
2022-12-05T06:59:54.966Z,1.43
2022-12-05T07:00:54.856Z,1.44
2022-12-05T07:01:54.870Z,1.47
2022-12-05T07:02:54.822Z,1.52
2022-12-05T07:03:54.791Z,1.51
2022-12-05T07:04:54.818Z,1.54
2022-12-05T07:05:54.790Z,1.58
2022-12-05T07:06:54.761Z,1.44
2022-12-05T07:07:54.807Z,1.55
2022-12-05T07:08:54.739Z,1.61
2022-12-05T07:09:54.797Z,1.57
2022-12-05T07:10:54.749Z,1.57
2022-12-05T07:11:54.713Z,1.44
2022-12-05T07:12:54.704Z,1.42
2022-12-05T07:13:54.693Z,1.40
2022-12-05T07:14:54.705Z,1.55
2022-12-05T07:15:54.696Z,1.57
2022-12-05T07:16:54.721Z,1.54
2022-12-05T07:17:54.659Z,1.60
2022-12-05T07:18:54.656Z,1.54
2022-12-05T07:19:54.669Z,1.57
2022-12-05T07:21:11.147Z,1.71
2022-12-05T07:21:56.624Z,1.54
2022-12-05T07:22:54.616Z,1.73
2022-12-05T07:23:54.611Z,1.72
2022-12-05T07:24:54.642Z,1.75
2022-12-05T07:25:54.593Z,1.71
2022-12-05T07:26:54.587Z,1.65
2022-12-05T07:27:54.572Z,1.71
2022-12-05T07:28:54.549Z,1.69
2022-12-05T07:29:54.592Z,1.73
2022-12-05T07:30:54.555Z,1.73
2022-12-05T07:31:54.579Z,1.68
2022-12-05T07:32:54.526Z,1.65
2022-12-05T07:33:54.546Z,1.58
2022-12-05T07:34:55.666Z,1.57
2022-12-05T07:35:55.502Z,1.57
2022-12-05T07:36:54.494Z,1.64
2022-12-05T07:37:54.493Z,1.57
2022-12-05T07:38:54.483Z,1.72
2022-12-05T07:39:54.508Z,1.64
2022-12-05T07:40:54.487Z,1.65
2022-12-05T07:41:54.459Z,1.78
2022-12-05T07:42:54.449Z,1.80
2022-12-05T07:43:54.448Z,1.78
2022-12-05T07:44:54.442Z,1.82
2022-12-05T07:45:54.518Z,1.89
2022-12-05T07:46:54.412Z,1.97
2022-12-05T07:47:54.546Z,1.98
2022-12-05T07:48:54.396Z,1.91
2022-12-05T07:49:54.415Z,2.01
2022-12-05T07:50:54.384Z,2.01
2022-12-05T07:51:54.370Z,2.12
2022-12-05T07:52:54.353Z,2.10
2022-12-05T07:53:54.377Z,2.16
2022-12-05T07:54:54.515Z,2.09
2022-12-05T07:55:54.343Z,2.20
2022-12-05T07:56:54.323Z,2.22
2022-12-05T07:57:54.324Z,2.26
2022-12-05T07:58:54.324Z,2.35
2022-12-05T07:59:54.338Z,2.26
2022-12-05T08:00:54.343Z,2.37
2022-12-05T08:01:54.324Z,2.40
2022-12-05T08:02:54.355Z,2.44
2022-12-05T08:03:54.274Z,2.41
2022-12-05T08:04:54.287Z,2.30
2022-12-05T08:05:54.271Z,2.40
2022-12-05T08:06:54.263Z,2.45
2022-12-05T08:07:54.383Z,2.38
2022-12-05T08:08:54.245Z,2.53
2022-12-05T08:09:54.249Z,2.53
2022-12-05T08:10:54.223Z,2.48
2022-12-05T08:11:54.218Z,2.49
2022-12-05T08:12:54.206Z,2.56
2022-12-05T08:13:54.207Z,2.41
2022-12-05T08:14:54.205Z,2.63
2022-12-05T08:15:54.179Z,2.51
2022-12-05T08:16:54.236Z,2.61
2022-12-05T08:17:54.179Z,2.56
2022-12-05T08:18:54.158Z,2.45
2022-12-05T08:19:54.178Z,2.53
2022-12-05T08:20:54.140Z,2.52
2022-12-05T08:21:54.143Z,2.46
2022-12-05T08:22:54.135Z,2.55
2022-12-05T08:23:54.190Z,2.69
2022-12-05T08:24:56.394Z,2.52
2022-12-05T08:25:54.109Z,2.55
2022-12-05T08:26:54.102Z,2.63
2022-12-05T08:27:54.094Z,2.51
2022-12-05T08:28:54.077Z,2.49
2022-12-05T08:29:54.103Z,2.51
2022-12-05T08:30:54.109Z,2.61
2022-12-05T08:31:54.072Z,2.58
2022-12-05T08:32:54.052Z,2.58
2022-12-05T08:33:58.820Z,2.59
2022-12-05T08:34:56.062Z,2.67
2022-12-05T08:35:54.054Z,2.59
2022-12-05T08:36:54.024Z,2.61
2022-12-05T08:37:54.019Z,2.61
2022-12-05T08:38:53.995Z,2.55
2022-12-05T08:39:55.097Z,2.59
2022-12-05T08:40:53.991Z,2.59
2022-12-05T08:41:53.986Z,2.63
2022-12-05T08:42:53.971Z,2.66
2022-12-05T08:43:53.958Z,2.51
2022-12-05T08:44:53.980Z,2.53
2022-12-05T08:45:53.989Z,2.61
2022-12-05T08:46:53.948Z,2.52
2022-12-05T08:47:53.927Z,2.55
2022-12-05T08:48:53.984Z,2.63
2022-12-05T08:49:53.936Z,2.61
2022-12-05T08:50:53.911Z,2.58
2022-12-05T08:51:53.900Z,2.58
2022-12-05T08:52:53.894Z,2.59
2022-12-05T08:53:53.886Z,2.67
2022-12-05T08:54:53.903Z,2.66
2022-12-05T08:55:53.869Z,2.66
2022-12-05T08:56:53.864Z,2.69
2022-12-05T08:57:53.864Z,2.74
2022-12-05T08:58:53.857Z,2.64
2022-12-05T08:59:53.842Z,2.63
2022-12-05T09:00:53.871Z,2.64
2022-12-05T09:01:53.891Z,2.70
2022-12-05T09:02:53.844Z,2.76
2022-12-05T09:03:53.802Z,2.71
2022-12-05T09:04:54.279Z,2.79
2022-12-05T09:05:55.028Z,2.66
2022-12-05T09:06:54.775Z,2.71
2022-12-05T09:07:53.809Z,2.76
2022-12-05T09:08:53.757Z,2.87
2022-12-05T09:09:53.767Z,2.87
2022-12-05T09:10:53.752Z,2.77
2022-12-05T09:11:53.730Z,2.84
2022-12-05T09:12:53.709Z,2.79
2022-12-05T09:13:54.717Z,2.85
2022-12-05T09:14:53.726Z,2.82
2022-12-05T09:15:53.746Z,2.77
2022-12-05T09:16:53.690Z,2.87
2022-12-05T09:17:53.828Z,2.76
2022-12-05T09:18:53.674Z,2.88
2022-12-05T09:19:53.674Z,2.85
2022-12-05T09:20:53.652Z,2.82
2022-12-05T09:21:53.651Z,2.95
2022-12-05T09:22:53.633Z,2.97
2022-12-05T09:23:53.621Z,3.00
2022-12-05T09:24:53.645Z,2.98
2022-12-05T09:25:53.616Z,3.06
2022-12-05T09:26:53.602Z,2.92
2022-12-05T09:27:53.576Z,3.09
2022-12-05T09:28:53.573Z,3.07
2022-12-05T09:29:53.585Z,2.92
2022-12-05T09:30:53.590Z,2.92
2022-12-05T09:31:53.537Z,2.81
2022-12-05T09:32:53.533Z,2.88
2022-12-05T09:33:53.533Z,2.95
2022-12-05T09:34:53.553Z,2.89
2022-12-05T09:35:53.515Z,2.76
2022-12-05T09:37:05.663Z,2.98
2022-12-05T09:37:55.498Z,2.92
2022-12-05T09:38:53.488Z,2.97
2022-12-05T09:39:53.494Z,2.98
2022-12-05T09:40:57.744Z,3.02
2022-12-05T09:41:55.448Z,2.92
2022-12-05T09:42:53.453Z,3.03
2022-12-05T09:43:53.426Z,2.88
2022-12-05T09:44:53.429Z,2.91
2022-12-05T09:45:53.503Z,2.98
2022-12-05T09:46:53.469Z,3.05
2022-12-05T09:47:53.401Z,3.00
2022-12-05T09:48:53.392Z,3.15
2022-12-05T09:49:53.388Z,2.98
2022-12-05T09:50:53.398Z,2.97
2022-12-05T09:51:55.324Z,3.09
2022-12-05T09:52:53.383Z,2.95
2022-12-05T09:53:53.360Z,2.98
2022-12-05T09:54:53.349Z,3.03
2022-12-05T09:55:53.348Z,3.07
2022-12-05T09:56:53.326Z,3.09
2022-12-05T09:57:53.317Z,3.21
2022-12-05T09:58:53.312Z,3.21
2022-12-05T09:59:53.292Z,3.25
2022-12-05T10:00:53.309Z,3.24
2022-12-05T10:01:53.359Z,3.15
2022-12-05T10:02:53.307Z,3.13
2022-12-05T10:03:53.271Z,3.15
2022-12-05T10:04:58.549Z,3.28
2022-12-05T10:05:55.268Z,3.28
2022-12-05T10:06:53.230Z,3.30
2022-12-05T10:07:53.267Z,3.42
2022-12-05T10:08:53.212Z,3.49
2022-12-05T10:09:53.210Z,3.57
2022-12-05T10:10:53.219Z,3.49
2022-12-05T10:11:53.186Z,3.53
2022-12-05T10:12:53.186Z,3.58
2022-12-05T10:13:53.171Z,3.49
2022-12-05T10:14:53.173Z,3.50
2022-12-05T10:15:57.026Z,3.61
2022-12-05T10:16:53.142Z,3.62
2022-12-05T10:17:53.134Z,3.62
2022-12-05T10:18:53.129Z,3.57
2022-12-05T10:19:53.120Z,3.31
2022-12-05T10:20:53.129Z,3.06
2022-12-05T10:21:53.098Z,3.13
2022-12-05T10:22:53.094Z,3.13
2022-12-05T10:23:57.903Z,3.28
2022-12-05T10:24:55.108Z,3.36
2022-12-05T10:25:53.078Z,3.47
2022-12-05T10:26:53.046Z,3.58
2022-12-05T10:27:53.031Z,3.70
2022-12-05T10:28:53.056Z,3.62
2022-12-05T10:29:53.015Z,3.70
2022-12-05T10:30:53.074Z,3.79
2022-12-05T10:31:52.986Z,3.71
2022-12-05T10:32:52.987Z,3.72
2022-12-05T10:33:52.979Z,3.67
2022-12-05T10:34:52.965Z,3.71
2022-12-05T10:35:52.977Z,3.70
2022-12-05T10:36:52.949Z,3.78
2022-12-05T10:37:52.938Z,3.75
2022-12-05T10:38:52.929Z,3.50
2022-12-05T10:39:52.923Z,3.50
2022-12-05T10:40:52.929Z,3.49
2022-12-05T10:41:52.896Z,3.46
2022-12-05T10:42:52.885Z,3.44
2022-12-05T10:43:52.879Z,3.50
2022-12-05T10:44:52.870Z,3.44
2022-12-05T10:45:52.875Z,3.43
2022-12-05T10:46:52.917Z,3.52
2022-12-05T10:47:52.839Z,3.49
2022-12-05T10:48:52.822Z,3.34
2022-12-05T10:49:52.821Z,3.34
2022-12-05T10:50:52.826Z,3.36
2022-12-05T10:51:52.844Z,3.28
2022-12-05T10:52:52.793Z,3.23
2022-12-05T10:53:52.790Z,3.31
2022-12-05T10:54:52.777Z,3.33
2022-12-05T10:56:28.181Z,3.15
2022-12-05T10:56:54.750Z,3.27
2022-12-05T10:57:52.740Z,3.18
2022-12-05T10:58:52.747Z,3.21
2022-12-05T10:59:52.724Z,3.15
2022-12-05T11:00:52.727Z,3.16
2022-12-05T11:01:52.708Z,3.28
2022-12-05T11:02:52.689Z,3.28
2022-12-05T11:03:52.673Z,3.25
2022-12-05T11:04:52.717Z,3.33
2022-12-05T11:05:52.689Z,3.21
2022-12-05T11:06:52.652Z,3.10
2022-12-05T11:07:52.660Z,3.06
2022-12-05T11:09:07.981Z,3.06
2022-12-05T11:09:54.633Z,3.00
2022-12-05T11:10:52.630Z,3.00
2022-12-05T11:11:52.601Z,3.06
2022-12-05T11:12:52.603Z,3.13
2022-12-05T11:13:52.598Z,3.09
2022-12-05T11:14:52.592Z,3.12
2022-12-05T11:15:55.634Z,3.09
2022-12-05T11:16:53.575Z,3.20
2022-12-05T11:17:52.555Z,3.31
2022-12-05T11:18:52.544Z,3.06
2022-12-05T11:19:52.547Z,3.06
2022-12-05T11:20:52.537Z,3.09
2022-12-05T11:21:52.525Z,2.95
2022-12-05T11:22:52.507Z,2.91
2022-12-05T11:23:52.501Z,2.92
2022-12-05T11:24:52.487Z,2.85
2022-12-05T11:25:52.505Z,2.77
2022-12-05T11:26:52.473Z,2.73
2022-12-05T11:27:53.576Z,2.76
2022-12-05T11:28:52.506Z,2.87
2022-12-05T11:29:52.441Z,2.81
2022-12-05T11:30:52.503Z,2.79
2022-12-05T11:31:52.432Z,2.81
2022-12-05T11:32:52.413Z,2.77
2022-12-05T11:33:52.410Z,2.84
2022-12-05T11:34:52.404Z,2.77
2022-12-05T11:35:52.405Z,2.81
2022-12-05T11:36:52.381Z,2.59
2022-12-05T11:37:52.396Z,2.61
2022-12-05T11:38:52.364Z,2.53
2022-12-05T11:39:52.349Z,2.67
2022-12-05T11:40:52.361Z,2.79
2022-12-05T11:41:52.336Z,2.77
2022-12-05T11:42:52.320Z,2.82
2022-12-05T11:43:52.304Z,2.81
2022-12-05T11:44:52.310Z,2.79
2022-12-05T11:45:52.318Z,2.81
2022-12-05T11:46:52.470Z,2.74
2022-12-05T11:47:52.288Z,2.77
2022-12-05T11:48:52.278Z,2.81
2022-12-05T11:49:54.472Z,2.82
2022-12-05T11:51:26.767Z,2.91
2022-12-05T11:51:52.248Z,2.71
2022-12-05T11:52:52.234Z,2.82
2022-12-05T11:53:52.261Z,2.73
2022-12-05T11:55:07.642Z,2.71
2022-12-05T11:55:54.269Z,2.67
2022-12-05T11:56:52.195Z,2.59
2022-12-05T11:57:52.811Z,2.56
2022-12-05T11:58:53.206Z,2.58
2022-12-05T11:59:52.170Z,2.61
2022-12-05T12:00:52.175Z,2.55
2022-12-05T12:01:52.210Z,2.61
2022-12-05T12:02:52.222Z,2.64
2022-12-05T12:03:52.168Z,2.56
2022-12-05T12:04:52.112Z,2.64
2022-12-05T12:05:52.143Z,2.61
2022-12-05T12:06:52.118Z,2.58
2022-12-05T12:07:52.163Z,2.69
2022-12-05T12:08:52.077Z,2.64
2022-12-05T12:09:52.074Z,2.52
2022-12-05T12:10:52.067Z,2.63
2022-12-05T12:11:52.066Z,2.67
2022-12-05T12:12:52.043Z,2.69
2022-12-05T12:13:52.033Z,2.56
2022-12-05T12:14:52.024Z,2.64
2022-12-05T12:15:52.024Z,2.56
2022-12-05T12:16:52.065Z,2.73
2022-12-05T12:17:51.999Z,2.71
2022-12-05T12:18:51.986Z,2.69
2022-12-05T12:19:51.977Z,2.69
2022-12-05T12:20:51.990Z,2.70
2022-12-05T12:21:51.960Z,2.74
2022-12-05T12:22:51.951Z,2.82
2022-12-05T12:23:51.938Z,2.76
2022-12-05T12:24:51.931Z,2.74
2022-12-05T12:25:51.943Z,2.79
2022-12-05T12:26:51.908Z,2.67
2022-12-05T12:27:51.903Z,2.73
2022-12-05T12:28:51.899Z,2.79
2022-12-05T12:29:51.902Z,2.67
2022-12-05T12:30:51.891Z,2.77
2022-12-05T12:31:51.914Z,2.73
2022-12-05T12:32:51.864Z,2.84
2022-12-05T12:33:51.851Z,2.76
2022-12-05T12:34:51.845Z,2.87
2022-12-05T12:35:51.846Z,2.88
2022-12-05T12:36:51.827Z,2.77
2022-12-05T12:37:51.816Z,2.77
2022-12-05T12:38:51.839Z,2.85
2022-12-05T12:39:51.793Z,2.85
2022-12-05T12:40:51.819Z,2.88
2022-12-05T12:41:51.794Z,2.81
2022-12-05T12:42:51.761Z,2.95
2022-12-05T12:43:54.279Z,2.97
2022-12-05T12:44:52.766Z,3.12
2022-12-05T12:45:51.808Z,3.02
2022-12-05T12:46:51.793Z,2.98
2022-12-05T12:47:51.718Z,3.03
2022-12-05T12:48:51.716Z,3.03
2022-12-05T12:49:51.733Z,2.87
2022-12-05T12:50:51.686Z,2.94
2022-12-05T12:51:51.706Z,2.97
2022-12-05T12:52:51.679Z,3.03
2022-12-05T12:53:51.674Z,3.07
2022-12-05T12:55:07.003Z,3.02
2022-12-05T12:55:53.685Z,3.06
2022-12-05T12:56:51.654Z,3.03
2022-12-05T12:57:51.649Z,2.95
2022-12-05T12:58:51.634Z,2.97
2022-12-05T12:59:51.636Z,3.06
2022-12-05T13:00:51.669Z,2.92
2022-12-05T13:01:51.656Z,2.94
2022-12-05T13:02:51.710Z,3.00
2022-12-05T13:03:51.956Z,2.97
2022-12-05T13:04:52.574Z,2.89
2022-12-05T13:05:51.567Z,2.88
2022-12-05T13:06:51.613Z,3.02
2022-12-05T13:07:51.650Z,3.10
2022-12-05T13:08:51.546Z,3.16
2022-12-05T13:09:52.076Z,3.06
2022-12-05T13:10:52.527Z,3.20
2022-12-05T13:11:51.532Z,3.23
2022-12-05T13:12:51.510Z,3.36
2022-12-05T13:13:51.502Z,3.31
2022-12-05T13:14:51.491Z,3.34
2022-12-05T13:15:51.479Z,3.33
2022-12-05T13:16:51.560Z,3.24
2022-12-05T13:17:51.462Z,3.21
2022-12-05T13:18:51.458Z,3.36
2022-12-05T13:19:51.459Z,3.34